Kennedy, Minnesota
Current Conditions -  °F | °C
As of 6:13 PM on Wednesday 22 Oct 2014 (Local Time) from KHCO Reporting Station
Light Rain Light Rain  
Wind Chill: 57°   Ceiling: 6000
Heat Index: 57°   Visibility: 7mi
Dew Point: 54°   Wind: 8mph
Humidity: 88%   Direction: 220°SW
Pressure: 29.79"   Gusts: NA
Location:  48.64°N, 96.91°W
Report Text: KHCO 222313Z AUTO 22007KT 7SM -RA SCT031 SCT038 OVC060 14/12 A2979 RMK AO2 P0001
Loading
Personal Weather Stations






























Interactive Weather Map
Tropical Storm Tracking
New forecast layout! Learn more

10-Day Weather Forecast

Advertisements
Track Severe Weather on mobile